createdAt,value
2017-08-08T00:00:41.500Z,19.40
2017-08-08T00:03:09.019Z,19.40
2017-08-08T00:05:37.332Z,19.30
2017-08-08T00:08:05.207Z,19.30
2017-08-08T00:10:32.755Z,19.30
2017-08-08T00:13:00.276Z,19.30
2017-08-08T00:15:27.780Z,19.30
2017-08-08T00:17:55.894Z,19.30
2017-08-08T00:20:23.394Z,19.20
2017-08-08T00:22:50.906Z,19.20
2017-08-08T00:25:18.410Z,19.10
2017-08-08T00:27:46.464Z,19.00
2017-08-08T00:30:14.774Z,19.00
2017-08-08T00:32:42.318Z,19.00
2017-08-08T00:35:09.847Z,19.00
2017-08-08T00:37:38.114Z,18.90
2017-08-08T00:40:05.639Z,18.90
2017-08-08T00:42:33.166Z,18.80
2017-08-08T00:45:00.735Z,18.80
2017-08-08T00:47:28.243Z,18.80
2017-08-08T00:49:55.771Z,18.70
2017-08-08T00:52:23.306Z,18.70
2017-08-08T00:54:50.811Z,18.60
2017-08-08T00:57:18.331Z,18.60
2017-08-08T00:59:45.834Z,18.50
2017-08-08T01:02:13.350Z,18.40
2017-08-08T01:04:40.851Z,18.40
2017-08-08T01:07:09.171Z,18.40
2017-08-08T01:09:36.679Z,18.40
2017-08-08T01:12:04.212Z,18.40
2017-08-08T01:14:31.728Z,18.40
2017-08-08T01:16:59.994Z,18.30
2017-08-08T01:19:28.281Z,18.30
2017-08-08T01:21:56.552Z,18.40
2017-08-08T01:24:24.843Z,18.40
2017-08-08T01:26:53.124Z,18.40
2017-08-08T01:29:20.679Z,18.30
2017-08-08T01:31:48.178Z,18.30
2017-08-08T01:34:15.699Z,18.30
2017-08-08T01:36:43.259Z,18.20
2017-08-08T01:39:10.779Z,18.20
2017-08-08T01:41:38.370Z,18.00
2017-08-08T01:44:05.900Z,18.00
2017-08-08T01:46:34.180Z,17.90
2017-08-08T01:49:02.491Z,17.90
2017-08-08T01:51:30.011Z,17.90
2017-08-08T01:53:59.116Z,17.90
2017-08-08T01:56:27.411Z,17.80
2017-08-08T01:58:54.955Z,17.80
2017-08-08T02:01:24.376Z,17.70
2017-08-08T02:03:51.874Z,17.70
2017-08-08T02:06:19.388Z,17.70
2017-08-08T02:08:46.887Z,17.60
2017-08-08T02:11:14.511Z,17.60
2017-08-08T02:13:42.326Z,17.60
2017-08-08T02:16:09.856Z,17.60
2017-08-08T02:18:37.358Z,17.60
2017-08-08T02:21:04.863Z,17.70
2017-08-08T02:23:32.379Z,17.70
2017-08-08T02:26:00.652Z,17.60
2017-08-08T02:28:28.960Z,17.60
2017-08-08T02:30:56.517Z,17.60
2017-08-08T02:33:24.387Z,17.50
2017-08-08T02:35:51.887Z,17.50
2017-08-08T02:38:19.402Z,17.50
2017-08-08T02:40:46.959Z,17.60
2017-08-08T02:43:14.479Z,17.60
2017-08-08T02:45:41.984Z,17.60
2017-08-08T02:48:10.351Z,17.60
2017-08-08T02:50:37.856Z,17.50
2017-08-08T02:53:05.363Z,17.50
2017-08-08T02:55:33.244Z,17.40
2017-08-08T02:58:00.747Z,17.40
2017-08-08T03:00:28.264Z,17.40
2017-08-08T03:02:56.224Z,17.40
2017-08-08T03:05:23.779Z,17.40
2017-08-08T03:07:51.770Z,17.40
2017-08-08T03:10:19.292Z,17.40
2017-08-08T03:12:46.796Z,17.30
2017-08-08T03:15:14.323Z,17.30
2017-08-08T03:17:41.822Z,17.40
2017-08-08T03:20:09.432Z,17.40
2017-08-08T03:22:36.943Z,17.40
2017-08-08T03:25:04.456Z,17.40
2017-08-08T03:27:31.977Z,17.40
2017-08-08T03:29:59.573Z,17.50
2017-08-08T03:32:27.098Z,17.40
2017-08-08T03:34:55.362Z,17.40
2017-08-08T03:37:22.880Z,17.40
2017-08-08T03:39:50.388Z,17.40
2017-08-08T03:42:17.907Z,17.50
2017-08-08T03:44:45.424Z,17.50
2017-08-08T03:47:12.942Z,17.40
2017-08-08T03:49:40.443Z,17.40
2017-08-08T03:52:08.536Z,17.40
2017-08-08T03:54:36.039Z,17.40
2017-08-08T03:57:03.664Z,17.40
2017-08-08T03:59:31.198Z,17.30
2017-08-08T04:01:58.723Z,17.30
2017-08-08T04:04:27.295Z,17.40
2017-08-08T04:06:54.832Z,17.40
2017-08-08T04:09:22.360Z,17.50
2017-08-08T04:11:50.635Z,17.50
2017-08-08T04:14:18.163Z,17.50
2017-08-08T04:16:46.435Z,17.60
2017-08-08T04:19:14.727Z,17.60
2017-08-08T04:21:42.998Z,17.70
2017-08-08T04:24:11.294Z,17.80
2017-08-08T04:26:38.800Z,17.70
2017-08-08T04:29:06.719Z,17.70
2017-08-08T04:31:34.235Z,17.70
2017-08-08T04:34:01.756Z,17.70
2017-08-08T04:36:29.388Z,17.60
2017-08-08T04:38:56.926Z,17.60
2017-08-08T04:41:24.514Z,17.60
2017-08-08T04:43:52.023Z,17.70
2017-08-08T04:46:19.636Z,17.70
2017-08-08T04:48:47.196Z,17.80
2017-08-08T04:51:14.751Z,17.80
2017-08-08T04:53:42.263Z,17.80
2017-08-08T04:56:09.872Z,17.90
2017-08-08T04:58:37.427Z,17.90
2017-08-08T05:01:04.943Z,17.90
2017-08-08T05:03:32.444Z,17.90
2017-08-08T05:05:59.971Z,17.90
2017-08-08T05:08:27.563Z,17.90
2017-08-08T05:10:55.090Z,17.90
2017-08-08T05:13:23.371Z,18.10
2017-08-08T05:15:51.777Z,18.20
2017-08-08T05:18:19.284Z,18.20
2017-08-08T05:20:46.895Z,18.30
2017-08-08T05:23:14.414Z,18.40
2017-08-08T05:25:41.928Z,18.40
2017-08-08T05:28:09.448Z,18.50
2017-08-08T05:30:37.728Z,18.60
2017-08-08T05:33:06.016Z,18.70
2017-08-08T05:35:33.580Z,18.60
2017-08-08T05:38:01.107Z,18.70
2017-08-08T05:40:29.371Z,18.80
2017-08-08T05:42:56.998Z,18.80
2017-08-08T05:45:24.509Z,18.90
2017-08-08T05:47:53.534Z,18.90
2017-08-08T05:50:21.450Z,18.80
2017-08-08T05:52:48.962Z,18.90
2017-08-08T05:55:16.480Z,19.00
2017-08-08T05:57:44.783Z,19.10
2017-08-08T06:00:12.628Z,19.00
2017-08-08T06:02:40.923Z,19.20
2017-08-08T06:05:08.447Z,19.20
2017-08-08T06:07:36.048Z,19.30
2017-08-08T06:10:03.868Z,19.40
2017-08-08T06:12:31.367Z,19.40
2017-08-08T06:14:58.882Z,19.40
2017-08-08T06:17:26.478Z,19.40
2017-08-08T06:19:54.052Z,19.50
2017-08-08T06:22:21.555Z,19.50
2017-08-08T06:24:49.164Z,19.50
2017-08-08T06:27:16.679Z,19.50
2017-08-08T06:29:44.288Z,19.50
2017-08-08T06:32:11.817Z,19.60
2017-08-08T06:34:40.091Z,19.70
2017-08-08T06:37:08.378Z,19.80
2017-08-08T06:39:35.888Z,19.80
2017-08-08T06:42:03.507Z,19.90
2017-08-08T06:44:31.015Z,19.90
2017-08-08T06:46:58.527Z,20.00
2017-08-08T06:49:26.083Z,20.10
2017-08-08T06:51:53.644Z,20.30
2017-08-08T06:54:21.672Z,20.40
2017-08-08T06:56:49.211Z,20.50
2017-08-08T06:59:16.710Z,20.60
2017-08-08T07:01:45.007Z,20.70
2017-08-08T07:04:12.562Z,20.70
2017-08-08T07:06:40.121Z,20.80
2017-08-08T07:09:07.683Z,20.90
2017-08-08T07:11:35.193Z,21.10
2017-08-08T07:14:02.804Z,21.20
2017-08-08T07:16:30.827Z,21.30
2017-08-08T07:18:58.422Z,21.40
2017-08-08T07:21:25.926Z,21.40
2017-08-08T07:23:53.446Z,21.50
2017-08-08T07:26:20.946Z,21.60
2017-08-08T07:28:48.564Z,21.80
2017-08-08T07:31:16.087Z,21.90
2017-08-08T07:33:44.132Z,21.90
2017-08-08T07:36:11.651Z,21.90
2017-08-08T07:38:39.211Z,21.90
2017-08-08T07:41:06.771Z,21.90
2017-08-08T07:43:34.266Z,22.00
2017-08-08T07:46:01.783Z,22.00
2017-08-08T07:48:29.282Z,22.10
2017-08-08T07:50:56.810Z,22.10
2017-08-08T07:53:24.311Z,22.10
2017-08-08T07:55:51.827Z,22.10
2017-08-08T07:58:19.326Z,22.10
2017-08-08T08:00:46.926Z,22.10
2017-08-08T08:03:14.422Z,22.10
2017-08-08T08:05:41.942Z,22.10
2017-08-08T08:08:09.502Z,22.20
2017-08-08T08:10:37.767Z,22.30
2017-08-08T08:13:06.058Z,22.50
2017-08-08T08:15:33.611Z,22.50
2017-08-08T08:18:01.130Z,22.70
2017-08-08T08:20:28.631Z,22.80
2017-08-08T08:22:56.168Z,22.90
2017-08-08T08:25:25.151Z,23.00
2017-08-08T08:27:52.703Z,23.00
2017-08-08T08:30:20.304Z,23.00
2017-08-08T08:32:47.859Z,23.00
2017-08-08T08:35:15.357Z,23.00
2017-08-08T08:37:42.984Z,23.00
2017-08-08T08:40:10.534Z,23.00
2017-08-08T08:42:38.098Z,23.20
2017-08-08T08:45:05.602Z,23.20
2017-08-08T08:47:33.099Z,23.10
2017-08-08T08:50:00.666Z,23.20
2017-08-08T08:52:28.170Z,23.20
2017-08-08T08:54:55.686Z,23.20
2017-08-08T08:57:23.195Z,23.20
2017-08-08T08:59:50.712Z,23.20
2017-08-08T09:02:18.268Z,23.20
2017-08-08T09:04:45.786Z,23.20
2017-08-08T09:07:13.287Z,23.30
2017-08-08T09:09:40.803Z,23.30
2017-08-08T09:12:09.079Z,23.30
2017-08-08T09:14:37.373Z,23.30
2017-08-08T09:17:04.912Z,23.20
2017-08-08T09:19:32.498Z,23.30
2017-08-08T09:22:00.063Z,23.30
2017-08-08T09:24:27.562Z,23.30
2017-08-08T09:26:55.175Z,23.30
2017-08-08T09:29:22.743Z,23.30
2017-08-08T09:31:50.610Z,23.30
2017-08-08T09:34:18.111Z,23.20
2017-08-08T09:36:45.626Z,23.20
2017-08-08T09:39:13.186Z,23.20
2017-08-08T09:41:41.048Z,23.20
2017-08-08T09:44:08.546Z,23.20
2017-08-08T09:46:36.062Z,23.20
2017-08-08T09:49:03.567Z,23.20
2017-08-08T09:51:31.098Z,23.20
2017-08-08T09:53:59.371Z,23.10
2017-08-08T09:56:26.871Z,23.00
2017-08-08T09:58:54.468Z,23.00
2017-08-08T10:01:21.966Z,23.00
2017-08-08T10:03:49.478Z,22.90
2017-08-08T10:06:16.979Z,22.90
2017-08-08T10:08:44.497Z,22.90
2017-08-08T10:11:12.063Z,22.90
2017-08-08T10:13:39.591Z,23.00
2017-08-08T10:16:07.894Z,23.20
2017-08-08T10:18:35.454Z,23.20
2017-08-08T10:21:03.931Z,23.40
2017-08-08T10:23:31.498Z,23.60
2017-08-08T10:25:58.998Z,23.80
2017-08-08T10:28:26.499Z,24.00
2017-08-08T10:30:54.779Z,24.30
2017-08-08T10:33:22.351Z,24.30
2017-08-08T10:35:49.903Z,24.40
2017-08-08T10:38:17.563Z,24.40
2017-08-08T10:40:45.124Z,24.50
2017-08-08T10:43:12.631Z,24.70
2017-08-08T10:45:40.145Z,24.70
2017-08-08T10:48:07.642Z,24.70
2017-08-08T10:50:35.259Z,24.70
2017-08-08T10:53:02.763Z,24.80
2017-08-08T10:55:30.258Z,25.00
2017-08-08T10:57:58.547Z,25.60
2017-08-08T11:00:26.051Z,25.60
2017-08-08T11:02:53.575Z,25.90
2017-08-08T11:05:21.123Z,25.90
2017-08-08T11:07:48.882Z,25.90
2017-08-08T11:10:16.378Z,25.70
2017-08-08T11:12:44.007Z,25.50
2017-08-08T11:15:11.510Z,25.40
2017-08-08T11:17:39.032Z,25.20
2017-08-08T11:20:06.535Z,25.10
2017-08-08T11:22:34.139Z,25.00
2017-08-08T11:25:01.638Z,24.90
2017-08-08T11:27:29.168Z,24.80
2017-08-08T11:29:57.326Z,24.70
2017-08-08T11:32:24.832Z,24.50
2017-08-08T11:34:52.350Z,24.40
2017-08-08T11:37:19.846Z,24.40
2017-08-08T11:39:48.077Z,24.40
2017-08-08T11:42:15.603Z,24.30
2017-08-08T11:44:43.118Z,24.40
2017-08-08T11:47:10.619Z,24.50
2017-08-08T11:49:38.130Z,24.40
2017-08-08T11:52:05.662Z,24.40
2017-08-08T11:54:33.223Z,24.30
2017-08-08T11:57:00.727Z,24.20
2017-08-08T11:59:28.646Z,24.10
2017-08-08T12:01:56.170Z,24.00
2017-08-08T12:04:23.711Z,24.00
2017-08-08T12:06:51.206Z,24.00
2017-08-08T12:09:19.495Z,23.80
2017-08-08T12:11:47.020Z,23.80
2017-08-08T12:14:14.616Z,23.70
2017-08-08T12:16:42.621Z,23.70
2017-08-08T12:19:10.145Z,23.70
2017-08-08T12:21:37.702Z,23.80
2017-08-08T12:24:05.267Z,23.90
2017-08-08T12:26:32.785Z,23.80
2017-08-08T12:29:00.288Z,24.00
2017-08-08T12:31:27.843Z,24.00
2017-08-08T12:33:55.347Z,24.10
2017-08-08T12:36:22.960Z,24.10
2017-08-08T12:38:50.462Z,24.20
2017-08-08T12:41:17.979Z,24.30
2017-08-08T12:43:45.545Z,24.30
2017-08-08T12:46:13.051Z,24.30
2017-08-08T12:48:40.572Z,24.30
2017-08-08T12:51:08.071Z,24.20
2017-08-08T12:53:35.658Z,24.00
2017-08-08T12:56:03.218Z,23.80
2017-08-08T12:58:30.739Z,23.70
2017-08-08T13:00:58.954Z,23.80
2017-08-08T13:03:26.516Z,23.80
2017-08-08T13:05:54.075Z,23.90
2017-08-08T13:08:21.610Z,24.00
2017-08-08T13:10:49.874Z,24.00
2017-08-08T13:13:17.470Z,23.90
2017-08-08T13:15:44.983Z,23.90
2017-08-08T13:18:12.482Z,23.80
2017-08-08T13:20:39.998Z,23.80
2017-08-08T13:23:07.495Z,23.80
2017-08-08T13:25:35.012Z,23.80
2017-08-08T13:28:02.511Z,23.70
2017-08-08T13:30:30.032Z,23.60
2017-08-08T13:32:58.478Z,23.60
2017-08-08T13:35:25.995Z,23.50
2017-08-08T13:37:53.507Z,23.40
2017-08-08T13:40:21.023Z,23.30
2017-08-08T13:42:48.995Z,23.20
2017-08-08T13:45:16.822Z,23.20
2017-08-08T13:47:44.343Z,23.10
2017-08-08T13:50:11.874Z,23.00
2017-08-08T13:52:39.634Z,23.00
2017-08-08T13:55:07.127Z,22.90
2017-08-08T13:57:35.303Z,22.80
2017-08-08T14:00:02.827Z,22.70
2017-08-08T14:02:30.345Z,22.60
2017-08-08T14:04:57.842Z,22.60
2017-08-08T14:07:25.403Z,22.60
2017-08-08T14:09:52.964Z,22.60
2017-08-08T14:12:20.519Z,22.60
2017-08-08T14:14:48.391Z,22.70
2017-08-08T14:17:15.915Z,22.70
2017-08-08T14:19:43.415Z,22.70
2017-08-08T14:22:10.962Z,22.70
2017-08-08T14:24:38.465Z,22.70
2017-08-08T14:27:05.966Z,22.70
2017-08-08T14:29:34.242Z,22.50
2017-08-08T14:32:02.535Z,22.50
2017-08-08T14:34:30.051Z,22.50
2017-08-08T14:36:57.653Z,22.50
2017-08-08T14:39:25.211Z,22.50
2017-08-08T14:41:52.866Z,22.50
2017-08-08T14:44:20.382Z,22.50
2017-08-08T14:46:47.983Z,22.40
2017-08-08T14:49:15.502Z,22.30
2017-08-08T14:51:43.527Z,22.20
2017-08-08T14:54:11.049Z,22.10
2017-08-08T14:56:39.735Z,22.10
2017-08-08T14:59:08.130Z,22.10
2017-08-08T15:01:35.845Z,22.10
2017-08-08T15:04:03.342Z,22.10
2017-08-08T15:06:31.644Z,22.20
2017-08-08T15:08:59.147Z,22.10
2017-08-08T15:11:26.747Z,22.10
2017-08-08T15:13:54.251Z,22.10
2017-08-08T15:16:21.762Z,22.10
2017-08-08T15:18:49.953Z,22.10
2017-08-08T15:21:17.501Z,22.10
2017-08-08T15:23:45.008Z,22.20
2017-08-08T15:26:12.632Z,22.10
2017-08-08T15:28:40.136Z,22.10
2017-08-08T15:31:07.668Z,22.20
2017-08-08T15:33:35.187Z,22.30
2017-08-08T15:36:02.690Z,22.40
2017-08-08T15:38:30.302Z,22.50
2017-08-08T15:40:57.807Z,22.50
2017-08-08T15:43:25.326Z,22.60
2017-08-08T15:45:53.486Z,22.60
2017-08-08T15:48:21.767Z,22.70
2017-08-08T15:50:49.336Z,22.70
2017-08-08T15:53:16.851Z,23.00
2017-08-08T15:55:44.351Z,23.30
2017-08-08T15:58:11.871Z,23.90
2017-08-08T16:00:39.383Z,24.80
2017-08-08T16:03:06.894Z,25.60
2017-08-08T16:05:35.163Z,26.30
2017-08-08T16:08:02.759Z,26.20
2017-08-08T16:10:30.974Z,26.30
2017-08-08T16:12:58.475Z,26.10
2017-08-08T16:15:26.756Z,25.60
2017-08-08T16:17:54.259Z,25.60
2017-08-08T16:20:22.147Z,25.40
2017-08-08T16:22:49.754Z,25.10
2017-08-08T16:25:17.274Z,24.60
2017-08-08T16:27:44.872Z,24.40
2017-08-08T16:30:12.423Z,24.20
2017-08-08T16:32:39.927Z,23.90
2017-08-08T16:35:07.450Z,23.80
2017-08-08T16:37:34.952Z,23.50
2017-08-08T16:40:02.555Z,23.40
2017-08-08T16:42:30.059Z,23.30
2017-08-08T16:44:57.564Z,23.20
2017-08-08T16:47:25.134Z,23.10
2017-08-08T16:49:53.258Z,23.10
2017-08-08T16:52:20.775Z,23.10
2017-08-08T16:54:48.279Z,23.20
2017-08-08T16:57:15.796Z,23.10
2017-08-08T16:59:43.299Z,23.00
2017-08-08T17:02:10.894Z,22.90
2017-08-08T17:04:38.455Z,22.80
2017-08-08T17:07:06.019Z,22.70
2017-08-08T17:09:33.514Z,22.70
2017-08-08T17:12:01.022Z,22.50
2017-08-08T17:14:29.306Z,22.40
2017-08-08T17:16:56.807Z,22.40
2017-08-08T17:19:25.163Z,22.40
2017-08-08T17:21:52.658Z,22.40
2017-08-08T17:24:20.180Z,22.40
2017-08-08T17:26:47.714Z,22.30
2017-08-08T17:29:15.243Z,22.20
2017-08-08T17:31:42.744Z,22.10
2017-08-08T17:34:10.854Z,22.00
2017-08-08T17:36:38.377Z,22.00
2017-08-08T17:39:05.887Z,21.90
2017-08-08T17:41:33.415Z,21.90
2017-08-08T17:44:01.251Z,21.80
2017-08-08T17:46:28.819Z,21.80
2017-08-08T17:48:56.327Z,21.70
2017-08-08T17:51:23.854Z,21.70
2017-08-08T17:53:51.350Z,21.70
2017-08-08T17:56:19.635Z,21.60
2017-08-08T17:58:47.903Z,21.50
2017-08-08T18:01:16.187Z,21.50
2017-08-08T18:03:44.579Z,21.50
2017-08-08T18:06:12.838Z,21.50
2017-08-08T18:08:41.129Z,21.40
2017-08-08T18:11:09.132Z,21.40
2017-08-08T18:13:36.636Z,21.40
2017-08-08T18:16:04.898Z,21.40
2017-08-08T18:18:32.423Z,21.40
2017-08-08T18:20:59.929Z,21.40
2017-08-08T18:23:28.210Z,21.40
2017-08-08T18:25:56.475Z,21.40
2017-08-08T18:28:24.753Z,21.30
2017-08-08T18:30:53.029Z,21.30
2017-08-08T18:33:21.326Z,21.30
2017-08-08T18:35:48.823Z,21.30
2017-08-08T18:38:16.351Z,21.20
2017-08-08T18:40:43.846Z,21.20
2017-08-08T18:43:11.362Z,21.20
2017-08-08T18:45:38.862Z,21.20
2017-08-08T18:48:06.362Z,21.20
2017-08-08T18:50:34.651Z,21.10
2017-08-08T18:53:02.150Z,21.10
2017-08-08T18:55:29.668Z,21.10
2017-08-08T18:57:57.190Z,21.10
2017-08-08T19:00:24.714Z,21.10
2017-08-08T19:02:52.242Z,21.10
2017-08-08T19:05:19.763Z,21.10
2017-08-08T19:07:47.264Z,21.00
2017-08-08T19:10:14.787Z,21.00
2017-08-08T19:12:42.291Z,21.00
2017-08-08T19:15:10.593Z,20.90
2017-08-08T19:17:38.094Z,20.90
2017-08-08T19:20:06.358Z,20.80
2017-08-08T19:22:34.666Z,20.80
2017-08-08T19:25:02.174Z,20.80
2017-08-08T19:27:29.851Z,20.70
2017-08-08T19:29:57.353Z,20.70
2017-08-08T19:32:24.871Z,20.70
2017-08-08T19:34:53.178Z,20.60
2017-08-08T19:37:21.138Z,20.60
2017-08-08T19:39:48.682Z,20.60
2017-08-08T19:42:16.962Z,20.50
2017-08-08T19:44:45.236Z,20.50
2017-08-08T19:47:13.558Z,20.40
2017-08-08T19:49:41.062Z,20.40
2017-08-08T19:52:09.326Z,20.40
2017-08-08T19:54:36.924Z,20.40
2017-08-08T19:57:04.433Z,20.40
2017-08-08T19:59:31.948Z,20.40
2017-08-08T20:01:59.443Z,20.40
2017-08-08T20:04:26.965Z,20.40
2017-08-08T20:06:54.767Z,20.30
2017-08-08T20:09:22.375Z,20.30
2017-08-08T20:11:49.874Z,20.20
2017-08-08T20:14:17.386Z,20.20
2017-08-08T20:16:45.166Z,20.20
2017-08-08T20:19:12.714Z,20.10
2017-08-08T20:21:40.274Z,20.10
2017-08-08T20:24:07.819Z,20.00
2017-08-08T20:26:36.090Z,20.00
2017-08-08T20:29:04.355Z,19.90
2017-08-08T20:31:31.871Z,19.90
2017-08-08T20:33:59.374Z,20.00
2017-08-08T20:36:27.651Z,19.90
2017-08-08T20:38:55.922Z,19.90
2017-08-08T20:41:23.505Z,19.90
2017-08-08T20:43:51.071Z,20.00
2017-08-08T20:46:18.590Z,20.00
2017-08-08T20:48:46.203Z,19.90
2017-08-08T20:51:13.754Z,19.90
2017-08-08T20:53:41.255Z,19.90
2017-08-08T20:56:08.765Z,19.90
2017-08-08T20:58:36.478Z,19.90
2017-08-08T21:01:04.091Z,19.90
2017-08-08T21:03:31.646Z,19.90
2017-08-08T21:05:59.150Z,19.90
2017-08-08T21:08:26.658Z,19.80
2017-08-08T21:10:54.219Z,19.80
2017-08-08T21:13:21.782Z,19.80
2017-08-08T21:15:49.279Z,19.70
2017-08-08T21:18:16.794Z,19.70
2017-08-08T21:20:44.578Z,19.70
2017-08-08T21:23:12.090Z,19.70
2017-08-08T21:25:40.395Z,19.70
2017-08-08T21:28:07.955Z,19.70
2017-08-08T21:30:35.515Z,19.70
2017-08-08T21:33:03.037Z,19.70
2017-08-08T21:35:30.627Z,19.70
2017-08-08T21:37:58.156Z,19.70
2017-08-08T21:40:25.744Z,19.70
2017-08-08T21:42:53.527Z,19.60
2017-08-08T21:45:21.071Z,19.60
2017-08-08T21:47:48.726Z,19.60
2017-08-08T21:50:16.248Z,19.60
2017-08-08T21:52:44.030Z,19.50
2017-08-08T21:55:12.340Z,19.50
2017-08-08T21:57:39.847Z,19.50
2017-08-08T22:00:07.452Z,19.50
2017-08-08T22:02:34.954Z,19.50
2017-08-08T22:05:02.466Z,19.50
2017-08-08T22:07:29.971Z,19.50
2017-08-08T22:09:57.492Z,19.40
2017-08-08T22:12:25.490Z,19.30
2017-08-08T22:14:53.020Z,19.40
2017-08-08T22:17:20.569Z,19.30
2017-08-08T22:19:48.078Z,19.30
2017-08-08T22:22:15.591Z,19.30
2017-08-08T22:24:43.144Z,19.20
2017-08-08T22:27:11.079Z,19.20
2017-08-08T22:29:39.381Z,19.20
2017-08-08T22:32:06.943Z,19.10
2017-08-08T22:34:34.448Z,19.10
2017-08-08T22:37:01.958Z,19.00
2017-08-08T22:39:29.459Z,19.00
2017-08-08T22:41:57.154Z,19.10
2017-08-08T22:44:25.803Z,19.10
2017-08-08T22:46:53.299Z,19.00
2017-08-08T22:49:21.599Z,19.00
2017-08-08T22:51:49.099Z,19.00
2017-08-08T22:54:16.614Z,19.10
2017-08-08T22:56:44.498Z,19.00
2017-08-08T22:59:12.043Z,19.00
2017-08-08T23:01:39.541Z,19.00
2017-08-08T23:04:07.159Z,19.00
2017-08-08T23:06:34.663Z,19.00
2017-08-08T23:09:02.178Z,19.00
2017-08-08T23:11:30.343Z,19.00
2017-08-08T23:13:57.907Z,18.90
2017-08-08T23:16:25.467Z,18.90
2017-08-08T23:18:53.027Z,18.90
2017-08-08T23:21:20.578Z,18.90
2017-08-08T23:23:48.095Z,18.90
2017-08-08T23:26:15.599Z,18.80
2017-08-08T23:28:43.108Z,18.90
2017-08-08T23:31:10.714Z,18.90
2017-08-08T23:33:38.279Z,19.00
2017-08-08T23:36:06.152Z,18.90
2017-08-08T23:38:33.802Z,18.90
2017-08-08T23:41:01.365Z,18.90
2017-08-08T23:43:28.858Z,18.80
2017-08-08T23:45:56.374Z,18.70
2017-08-08T23:48:23.875Z,18.70
2017-08-08T23:50:51.395Z,18.60
2017-08-08T23:53:18.890Z,18.70
2017-08-08T23:55:46.402Z,18.70
2017-08-08T23:58:13.898Z,18.60
